createdAt,value
2023-03-23T15:58:18.082Z,17.30
2023-03-23T16:00:48.738Z,17.20
2023-03-23T16:03:30.972Z,17.10
2023-03-23T16:06:00.123Z,17.10
2023-03-23T16:08:27.336Z,17.00
2023-03-23T16:10:54.320Z,16.90
2023-03-23T16:13:21.462Z,16.90
2023-03-23T16:15:49.622Z,17.00
2023-03-23T16:18:22.479Z,17.00
2023-03-23T16:20:50.769Z,17.00
2023-03-23T16:23:18.300Z,17.00
2023-03-23T16:25:45.507Z,16.90
2023-03-23T16:28:13.936Z,16.90
2023-03-23T16:30:46.795Z,16.80
2023-03-23T16:33:14.200Z,16.70
2023-03-23T16:35:50.691Z,16.60
2023-03-23T16:38:18.498Z,16.50
2023-03-23T16:40:46.917Z,16.50
2023-03-23T16:43:16.745Z,16.40
2023-03-23T16:45:46.644Z,16.40
2023-03-23T16:48:16.057Z,16.40
2023-03-23T16:50:44.740Z,16.30
2023-03-23T16:53:11.861Z,16.20
2023-03-23T16:55:39.484Z,16.10
2023-03-23T17:00:39.831Z,16.10
2023-03-23T17:03:07.118Z,16.10
2023-03-23T17:05:35.295Z,16.00
2023-03-23T17:08:02.446Z,16.00
2023-03-23T17:10:32.596Z,15.90
2023-03-23T17:13:17.563Z,15.90
2023-03-23T17:15:50.136Z,15.80
2023-03-23T17:18:19.495Z,15.80
2023-03-23T17:20:49.517Z,15.70
2023-03-23T17:23:17.792Z,15.70
2023-03-23T17:25:47.665Z,15.60
2023-03-23T17:28:14.649Z,15.60
2023-03-23T17:30:45.483Z,15.50
2023-03-23T17:33:12.693Z,15.50
2023-03-23T17:35:39.593Z,15.50
2023-03-23T17:38:08.962Z,15.50
2023-03-23T17:40:35.907Z,15.40
2023-03-23T17:43:03.064Z,15.50
2023-03-23T17:45:32.302Z,15.40
2023-03-23T17:47:59.379Z,15.40
2023-03-23T17:50:26.978Z,15.40
2023-03-23T17:52:54.225Z,15.30
2023-03-23T17:55:22.614Z,15.30
2023-03-23T17:57:49.815Z,15.30
2023-03-23T18:00:19.820Z,15.20
2023-03-23T18:02:47.304Z,15.20
2023-03-23T18:05:17.969Z,15.10
2023-03-23T18:07:45.848Z,15.10
2023-03-23T18:10:13.358Z,15.00
2023-03-23T18:12:41.574Z,15.00
2023-03-23T18:15:10.491Z,14.90
2023-03-23T18:17:40.307Z,14.80
2023-03-23T18:20:09.586Z,14.80
2023-03-23T18:22:36.674Z,14.70
2023-03-23T18:25:05.161Z,14.60
2023-03-23T18:27:34.163Z,14.50
2023-03-23T18:30:03.891Z,14.50
2023-03-23T18:32:31.138Z,14.50
2023-03-23T18:34:58.030Z,14.40
2023-03-23T18:37:24.908Z,14.40
2023-03-23T18:39:53.578Z,14.30
2023-03-23T18:42:21.292Z,14.30
2023-03-23T18:44:48.255Z,14.30
2023-03-23T18:47:17.867Z,14.30
2023-03-23T18:49:47.396Z,14.30
2023-03-23T18:52:16.492Z,14.30
2023-03-23T18:54:45.274Z,14.30
2023-03-23T18:58:04.796Z,14.30
2023-03-23T19:00:33.980Z,14.20
2023-03-23T19:03:04.663Z,14.10
2023-03-23T19:05:32.834Z,14.00
2023-03-23T19:08:05.000Z,14.00
2023-03-23T19:11:13.805Z,14.00
2023-03-23T19:13:53.940Z,14.00
2023-03-23T19:16:31.394Z,14.00
2023-03-23T19:18:59.921Z,14.00
2023-03-23T19:21:29.663Z,14.00
2023-03-23T19:23:58.328Z,14.00
2023-03-23T19:26:48.742Z,14.00
2023-03-23T19:29:26.571Z,13.90
2023-03-23T19:31:55.929Z,13.80
2023-03-23T19:34:26.770Z,13.80
2023-03-23T19:37:03.251Z,13.80
2023-03-23T19:39:33.780Z,13.90
2023-03-23T19:42:04.383Z,13.90
2023-03-23T19:44:32.285Z,13.80
2023-03-23T19:46:59.404Z,13.90
2023-03-23T19:49:27.002Z,13.90
2023-03-23T19:52:07.931Z,13.90
2023-03-23T19:54:39.175Z,13.90
2023-03-23T19:57:09.268Z,13.90
2023-03-23T19:59:37.092Z,13.90
2023-03-23T20:02:04.827Z,13.90
2023-03-23T20:04:31.935Z,13.90
2023-03-23T20:07:00.108Z,13.90
2023-03-23T20:09:27.129Z,13.90
2023-03-23T20:11:54.052Z,13.90
2023-03-23T20:14:21.023Z,13.90
2023-03-23T20:16:48.136Z,13.80
2023-03-23T20:19:17.706Z,13.70
2023-03-23T20:21:45.245Z,13.70
2023-03-23T20:24:14.403Z,13.60
2023-03-23T20:26:43.565Z,13.50
2023-03-23T20:29:13.266Z,13.50
2023-03-23T20:31:46.521Z,13.50
2023-03-23T20:34:28.571Z,13.40
2023-03-23T20:37:02.059Z,13.50
2023-03-23T20:39:31.872Z,13.40
2023-03-23T20:42:06.082Z,13.40
2023-03-23T20:44:36.066Z,13.40
2023-03-23T20:47:06.210Z,13.30
2023-03-23T20:49:37.486Z,13.40
2023-03-23T20:52:08.147Z,13.40
2023-03-23T20:54:40.287Z,13.40
2023-03-23T20:57:08.228Z,13.40
2023-03-23T20:59:35.637Z,13.30
2023-03-23T21:02:02.579Z,13.30
2023-03-23T21:04:30.478Z,13.30
2023-03-23T21:07:07.641Z,13.20
2023-03-23T21:09:35.024Z,13.10
2023-03-23T21:12:06.416Z,13.10
2023-03-23T21:14:33.872Z,13.00
2023-03-23T21:17:01.676Z,13.00
2023-03-23T21:19:34.644Z,13.00
2023-03-23T21:22:01.701Z,12.90
2023-03-23T21:24:31.954Z,12.90
2023-03-23T21:27:06.894Z,12.90
2023-03-23T21:29:33.782Z,12.90
2023-03-23T21:32:08.077Z,12.80
2023-03-23T21:34:36.954Z,12.90
2023-03-23T21:37:04.351Z,12.90
2023-03-23T21:39:31.745Z,12.80
2023-03-23T21:42:02.633Z,12.80
2023-03-23T21:44:29.565Z,12.70
2023-03-23T21:47:01.856Z,12.60
2023-03-23T21:49:30.202Z,12.60
2023-03-23T21:51:57.119Z,12.50
2023-03-23T21:54:24.128Z,12.40
2023-03-23T21:56:51.028Z,12.40
2023-03-23T21:59:20.014Z,12.30
2023-03-23T22:01:48.127Z,12.30
2023-03-23T22:04:17.354Z,12.30
2023-03-23T22:06:44.725Z,12.20
2023-03-23T22:09:12.185Z,12.30
2023-03-23T22:11:41.976Z,12.30
2023-03-23T22:14:09.477Z,12.40
2023-03-23T22:16:36.614Z,12.40
2023-03-23T22:19:06.770Z,12.50
2023-03-23T22:21:33.793Z,12.50
2023-03-23T22:24:01.319Z,12.50
2023-03-23T22:26:30.385Z,12.50
2023-03-23T22:28:58.947Z,12.50
2023-03-23T22:31:28.950Z,12.50
2023-03-23T22:33:57.547Z,12.60
2023-03-23T22:36:29.901Z,12.50
2023-03-23T22:38:57.223Z,12.60
2023-03-23T22:41:27.888Z,12.50
2023-03-23T22:43:59.774Z,12.50
2023-03-23T22:46:26.997Z,12.40
2023-03-23T22:48:56.607Z,12.30
2023-03-23T22:51:24.018Z,12.30
2023-03-23T22:53:51.114Z,12.30
2023-03-23T22:56:18.831Z,12.30
2023-03-23T22:58:48.299Z,12.30
2023-03-23T23:01:18.301Z,12.30
2023-03-23T23:03:45.563Z,12.30
2023-03-23T23:06:14.332Z,12.30
2023-03-23T23:08:41.746Z,12.30
2023-03-23T23:11:11.968Z,12.20
2023-03-23T23:13:43.180Z,12.20
2023-03-23T23:16:11.810Z,12.20
2023-03-23T23:18:40.694Z,12.20
2023-03-23T23:21:14.392Z,12.20
2023-03-23T23:23:41.636Z,12.20
2023-03-23T23:26:09.889Z,12.20
2023-03-23T23:28:42.512Z,12.10
2023-03-23T23:31:26.718Z,12.10
2023-03-23T23:33:58.975Z,12.00
2023-03-23T23:36:30.594Z,12.00
2023-03-23T23:39:02.410Z,11.90
2023-03-23T23:41:31.089Z,11.90
2023-03-23T23:43:58.378Z,11.90
2023-03-23T23:46:25.849Z,11.90
2023-03-23T23:48:53.028Z,11.90
2023-03-23T23:51:21.071Z,11.90
2023-03-23T23:53:53.655Z,11.90
2023-03-23T23:56:21.658Z,11.90
2023-03-23T23:58:51.258Z,11.90
